createdAt,value
2022-12-15T00:00:56.442Z,81.88
2022-12-15T00:03:47.377Z,82.05
2022-12-15T00:06:34.987Z,82.00
2022-12-15T00:09:30.679Z,82.28
2022-12-15T00:12:19.803Z,82.96
2022-12-15T00:15:08.274Z,82.40
2022-12-15T00:17:56.286Z,82.21
2022-12-15T00:20:44.752Z,82.65
2022-12-15T00:23:32.549Z,83.32
2022-12-15T00:26:20.499Z,83.32
2022-12-15T00:29:08.043Z,83.61
2022-12-15T00:31:56.464Z,83.95
2022-12-15T00:34:45.183Z,84.20
2022-12-15T00:37:33.473Z,83.46
2022-12-15T00:40:05.545Z,83.10
2022-12-15T00:42:36.986Z,83.73
2022-12-15T00:45:07.192Z,83.51
2022-12-15T00:47:38.342Z,83.54
2022-12-15T00:50:28.247Z,83.86
2022-12-15T00:53:16.910Z,83.25
2022-12-15T00:56:06.596Z,83.07
2022-12-15T00:58:56.545Z,82.80
2022-12-15T01:01:45.920Z,83.82
2022-12-15T01:04:38.703Z,83.37
2022-12-15T01:07:28.207Z,82.58
2022-12-15T01:10:17.645Z,83.22
2022-12-15T01:13:06.910Z,83.11
2022-12-15T01:15:59.745Z,82.69
2022-12-15T01:18:49.618Z,83.63
2022-12-15T01:21:24.295Z,83.64
2022-12-15T01:23:56.193Z,83.58
2022-12-15T01:26:26.434Z,83.33
2022-12-15T01:28:56.048Z,83.68
2022-12-15T01:31:26.253Z,83.65
2022-12-15T01:33:57.954Z,83.72
2022-12-15T01:36:27.925Z,83.83
2022-12-15T01:38:58.405Z,84.41
2022-12-15T01:41:30.410Z,83.54
2022-12-15T01:44:23.146Z,83.32
2022-12-15T01:46:58.695Z,84.02
2022-12-15T01:49:32.575Z,84.14
2022-12-15T01:52:09.549Z,83.34
2022-12-15T01:54:51.237Z,83.89
2022-12-15T01:57:28.746Z,84.27
2022-12-15T02:00:02.493Z,84.43
2022-12-15T02:02:39.927Z,83.42
2022-12-15T02:05:10.920Z,83.14
2022-12-15T02:07:40.995Z,84.60
2022-12-15T02:10:12.760Z,85.12
2022-12-15T02:12:50.518Z,84.79
2022-12-15T02:15:32.356Z,83.86
2022-12-15T02:18:35.167Z,83.41
2022-12-15T02:21:12.013Z,82.83
2022-12-15T02:23:51.350Z,83.83
2022-12-15T02:26:57.585Z,85.32
2022-12-15T02:29:49.916Z,85.91
2022-12-15T02:32:32.971Z,86.16
2022-12-15T02:35:10.881Z,86.53
2022-12-15T02:37:42.421Z,84.77
2022-12-15T02:40:12.493Z,84.12
2022-12-15T02:42:50.315Z,83.90
2022-12-15T02:45:25.359Z,84.78
2022-12-15T02:48:24.208Z,86.23
2022-12-15T02:51:28.223Z,87.23
2022-12-15T02:54:20.281Z,87.47
2022-12-15T02:57:21.913Z,86.67
2022-12-15T03:00:02.718Z,85.06
2022-12-15T03:02:35.123Z,84.40
2022-12-15T03:05:06.054Z,84.40
2022-12-15T03:07:36.916Z,84.40
2022-12-15T03:10:07.676Z,84.34
2022-12-15T03:12:36.911Z,85.35
2022-12-15T03:15:06.439Z,86.27
2022-12-15T03:17:36.896Z,86.67
2022-12-15T03:20:09.318Z,87.26
2022-12-15T03:22:38.988Z,88.01
2022-12-15T03:25:09.214Z,87.82
2022-12-15T03:27:39.611Z,87.17
2022-12-15T03:30:10.086Z,87.37
2022-12-15T03:32:40.203Z,87.33
2022-12-15T03:35:10.557Z,86.24
2022-12-15T03:37:40.912Z,85.57
2022-12-15T03:40:12.318Z,87.37
2022-12-15T03:42:51.743Z,87.21
2022-12-15T03:45:24.811Z,87.63
2022-12-15T03:47:55.046Z,87.56
2022-12-15T03:50:27.725Z,87.70
2022-12-15T03:53:00.240Z,88.58
2022-12-15T03:55:31.212Z,88.95
2022-12-15T03:58:01.252Z,89.00
2022-12-15T04:00:30.858Z,89.01
2022-12-15T04:03:00.161Z,88.36
2022-12-15T04:05:31.997Z,87.65
2022-12-15T04:08:03.286Z,87.87
2022-12-15T04:10:35.238Z,87.14
2022-12-15T04:13:08.521Z,86.63
2022-12-15T04:15:40.265Z,85.88
2022-12-15T04:18:11.109Z,85.90
2022-12-15T04:20:41.532Z,85.94
2022-12-15T04:23:10.505Z,86.50
2022-12-15T04:25:57.933Z,86.08
2022-12-15T04:28:46.086Z,85.94
2022-12-15T04:31:39.333Z,87.82
2022-12-15T04:34:34.240Z,87.60
2022-12-15T04:37:21.955Z,88.01
2022-12-15T04:40:12.359Z,88.42
2022-12-15T04:43:06.142Z,88.46
2022-12-15T04:45:54.233Z,88.13
2022-12-15T04:48:42.925Z,87.45
2022-12-15T04:51:30.660Z,87.13
2022-12-15T04:54:18.797Z,87.46
2022-12-15T04:57:06.437Z,88.53
2022-12-15T04:59:53.750Z,88.77
2022-12-15T05:02:41.659Z,88.37
2022-12-15T05:05:29.941Z,88.13
2022-12-15T05:08:18.284Z,88.76
2022-12-15T05:11:06.127Z,87.95
2022-12-15T05:13:53.533Z,87.50
2022-12-15T05:16:42.456Z,87.97
2022-12-15T05:19:30.125Z,88.20
2022-12-15T05:22:17.772Z,89.12
2022-12-15T05:25:05.385Z,89.37
2022-12-15T05:27:53.125Z,88.96
2022-12-15T05:30:41.437Z,88.66
2022-12-15T05:33:10.868Z,88.30
2022-12-15T05:35:39.964Z,87.98
2022-12-15T05:38:08.720Z,88.75
2022-12-15T05:40:38.477Z,89.12
2022-12-15T05:43:07.249Z,89.09
2022-12-15T05:45:36.237Z,89.48
2022-12-15T05:48:05.942Z,90.44
2022-12-15T05:50:34.635Z,91.24
2022-12-15T05:53:03.952Z,90.36
2022-12-15T05:55:33.245Z,91.22
2022-12-15T05:58:01.918Z,90.30
2022-12-15T06:00:30.773Z,90.50
2022-12-15T06:03:00.501Z,89.34
2022-12-15T06:05:29.621Z,88.84
2022-12-15T06:08:00.554Z,88.65
2022-12-15T06:10:29.333Z,88.59
2022-12-15T06:12:57.922Z,88.17
2022-12-15T06:15:27.069Z,87.94
2022-12-15T06:17:56.631Z,87.79
2022-12-15T06:20:25.201Z,87.70
2022-12-15T06:22:54.411Z,87.70
2022-12-15T06:25:23.189Z,88.95
2022-12-15T06:27:55.772Z,89.91
2022-12-15T06:30:27.327Z,90.62
2022-12-15T06:32:56.112Z,90.58
2022-12-15T06:35:24.904Z,91.08
2022-12-15T06:37:54.092Z,90.63
2022-12-15T06:40:22.882Z,90.09
2022-12-15T06:42:51.566Z,90.31
2022-12-15T06:45:20.251Z,90.40
2022-12-15T06:47:49.452Z,90.50
2022-12-15T06:50:18.448Z,89.55
2022-12-15T06:52:47.540Z,89.32
2022-12-15T06:55:16.220Z,89.51
2022-12-15T06:57:48.282Z,90.01
2022-12-15T07:00:17.272Z,89.60
2022-12-15T07:02:50.126Z,89.05
2022-12-15T07:05:19.670Z,88.67
2022-12-15T07:07:49.067Z,88.56
2022-12-15T07:10:18.280Z,88.42
2022-12-15T07:12:47.474Z,88.98
2022-12-15T07:15:17.290Z,88.90
2022-12-15T07:17:45.967Z,89.63
2022-12-15T07:20:14.648Z,89.63
2022-12-15T07:22:43.333Z,89.07
2022-12-15T07:25:12.329Z,88.74
2022-12-15T07:27:41.531Z,88.45
2022-12-15T07:30:11.442Z,88.51
2022-12-15T07:32:40.435Z,87.69
2022-12-15T07:35:10.250Z,87.18
2022-12-15T07:37:39.130Z,86.46
2022-12-15T07:40:09.039Z,85.66
2022-12-15T07:42:38.058Z,85.11
2022-12-15T07:45:07.755Z,84.68
2022-12-15T07:47:36.336Z,84.55
2022-12-15T07:50:05.433Z,83.11
2022-12-15T07:52:34.324Z,81.90
2022-12-15T07:55:03.004Z,82.75
2022-12-15T07:57:33.051Z,82.49
2022-12-15T08:00:05.800Z,82.44
2022-12-15T08:02:42.316Z,80.77
2022-12-15T08:05:11.483Z,80.67
2022-12-15T08:07:40.250Z,81.14
2022-12-15T08:10:09.760Z,80.86
2022-12-15T08:12:38.555Z,80.88
2022-12-15T08:15:08.098Z,81.21
2022-12-15T08:17:36.644Z,81.64
2022-12-15T08:20:09.910Z,81.50
2022-12-15T08:22:39.023Z,81.72
2022-12-15T08:25:08.229Z,82.18
2022-12-15T08:27:36.781Z,82.38
2022-12-15T08:30:06.411Z,83.06
2022-12-15T08:32:34.996Z,83.11
2022-12-15T08:35:03.985Z,83.14
2022-12-15T08:37:32.677Z,83.05
2022-12-15T08:40:03.332Z,83.02
2022-12-15T08:42:36.288Z,82.87
2022-12-15T08:45:06.190Z,82.70
2022-12-15T08:47:34.787Z,82.68
2022-12-15T08:50:03.680Z,82.64
2022-12-15T08:52:32.474Z,82.57
2022-12-15T08:55:01.360Z,82.94
2022-12-15T08:57:30.054Z,82.98
2022-12-15T08:59:59.448Z,82.64
2022-12-15T09:02:28.296Z,82.18
2022-12-15T09:04:57.433Z,81.97
2022-12-15T09:07:26.629Z,81.46
2022-12-15T09:09:55.724Z,81.51
2022-12-15T09:12:24.510Z,81.12
2022-12-15T09:14:53.197Z,81.28
2022-12-15T09:17:21.919Z,80.64
2022-12-15T09:19:50.771Z,79.20
2022-12-15T09:22:19.865Z,79.27
2022-12-15T09:24:49.170Z,78.04
2022-12-15T09:27:18.165Z,78.44
2022-12-15T09:29:46.945Z,78.17
2022-12-15T09:32:15.632Z,77.50
2022-12-15T09:34:44.519Z,76.62
2022-12-15T09:37:13.721Z,77.75
2022-12-15T09:39:42.411Z,77.26
2022-12-15T09:42:29.631Z,77.01
2022-12-15T09:45:06.093Z,76.74
2022-12-15T09:48:09.288Z,77.01
2022-12-15T09:50:40.097Z,75.91
2022-12-15T09:53:45.597Z,76.38
2022-12-15T09:56:19.683Z,76.03
2022-12-15T09:58:51.034Z,76.22
2022-12-15T10:01:39.127Z,77.45
2022-12-15T10:04:34.443Z,76.96
2022-12-15T10:07:36.166Z,77.55
2022-12-15T10:10:21.617Z,77.26
2022-12-15T10:13:01.775Z,77.70
2022-12-15T10:15:45.883Z,77.02
2022-12-15T10:18:26.995Z,76.50
2022-12-15T10:21:02.397Z,76.68
2022-12-15T10:23:37.090Z,77.04
2022-12-15T10:26:26.027Z,75.42
2022-12-15T10:29:30.109Z,75.98
2022-12-15T10:32:05.634Z,74.77
2022-12-15T10:34:38.334Z,75.44
2022-12-15T10:37:14.017Z,75.02
2022-12-15T10:39:45.792Z,74.47
2022-12-15T10:42:26.766Z,75.12
2022-12-15T10:44:57.996Z,75.06
2022-12-15T10:47:29.539Z,74.30
2022-12-15T10:53:40.341Z,74.88
2022-12-15T10:56:09.741Z,74.96
2022-12-15T10:58:52.047Z,75.35
2022-12-15T11:01:32.935Z,75.13
2022-12-15T11:04:01.855Z,75.28
2022-12-15T11:06:33.479Z,74.20
2022-12-15T11:09:21.805Z,74.07
2022-12-15T11:12:12.360Z,74.05
2022-12-15T11:14:51.617Z,74.95
2022-12-15T11:17:23.299Z,74.64
2022-12-15T11:20:21.783Z,73.99
2022-12-15T11:23:01.016Z,74.38
2022-12-15T11:25:39.019Z,74.60
2022-12-15T11:28:19.992Z,74.43
2022-12-15T11:31:04.036Z,73.91
2022-12-15T11:33:33.320Z,74.54
2022-12-15T11:36:17.685Z,73.97
2022-12-15T11:39:32.355Z,73.17
2022-12-15T11:42:06.255Z,72.65
2022-12-15T11:45:01.262Z,71.12
2022-12-15T11:47:49.408Z,68.98
2022-12-15T11:50:44.716Z,65.79
2022-12-15T11:53:41.764Z,63.14
2022-12-15T11:56:32.676Z,60.12
2022-12-15T11:59:19.495Z,56.04
2022-12-15T12:02:25.947Z,52.73
2022-12-15T12:05:42.775Z,49.77
2022-12-15T12:08:17.296Z,48.93
2022-12-15T12:11:01.183Z,47.82
2022-12-15T12:13:50.292Z,47.49
2022-12-15T12:16:46.215Z,45.39
2022-12-15T12:19:28.036Z,47.93
2022-12-15T12:22:04.068Z,46.44
2022-12-15T12:24:40.444Z,42.30
2022-12-15T12:27:39.838Z,42.10
2022-12-15T12:30:15.808Z,43.84
2022-12-15T12:33:03.014Z,44.31
2022-12-15T12:35:41.636Z,41.29
2022-12-15T12:38:12.281Z,41.63
2022-12-15T12:40:41.029Z,40.75
2022-12-15T12:43:14.208Z,41.47
2022-12-15T12:45:54.511Z,40.98
2022-12-15T12:48:35.167Z,39.78
2022-12-15T12:51:28.120Z,40.37
2022-12-15T12:53:58.857Z,39.83
2022-12-15T12:56:38.399Z,39.15
2022-12-15T12:59:29.527Z,39.60
2022-12-15T13:02:31.597Z,39.97
2022-12-15T13:05:24.395Z,40.25
2022-12-15T13:08:17.277Z,39.82
2022-12-15T13:10:48.122Z,39.79
2022-12-15T13:13:29.349Z,39.62
2022-12-15T13:16:13.439Z,39.80
2022-12-15T13:19:03.811Z,39.93
2022-12-15T13:21:45.316Z,39.20
2022-12-15T13:24:46.569Z,40.42
2022-12-15T13:27:20.187Z,40.37
2022-12-15T13:30:16.304Z,39.78
2022-12-15T13:32:53.492Z,40.16
2022-12-15T13:35:34.864Z,39.94
2022-12-15T13:38:04.646Z,40.49
2022-12-15T13:40:52.227Z,40.74
2022-12-15T13:43:26.733Z,41.56
2022-12-15T13:46:03.536Z,41.92
2022-12-15T13:48:39.428Z,40.94
2022-12-15T13:51:43.298Z,41.86
2022-12-15T13:54:19.825Z,41.34
2022-12-15T13:57:13.387Z,42.17
2022-12-15T13:59:51.000Z,43.37
2022-12-15T14:02:28.391Z,43.77
2022-12-15T14:05:12.231Z,44.05
2022-12-15T14:07:54.809Z,44.85
2022-12-15T14:10:44.209Z,45.93
2022-12-15T14:13:20.070Z,46.94
2022-12-15T14:16:04.457Z,47.46
2022-12-15T14:18:39.469Z,48.82
2022-12-15T14:21:20.325Z,50.27
2022-12-15T14:26:38.690Z,53.96
2022-12-15T14:29:07.375Z,56.11
2022-12-15T14:31:37.766Z,57.69
2022-12-15T14:34:15.700Z,60.22
2022-12-15T14:36:46.232Z,60.89
2022-12-15T14:39:42.069Z,61.07
2022-12-15T14:42:20.113Z,64.12
2022-12-15T14:44:51.397Z,66.92
2022-12-15T14:47:36.064Z,66.46
2022-12-15T14:50:10.393Z,70.52
2022-12-15T14:52:44.695Z,72.51
2022-12-15T14:55:31.922Z,73.93
2022-12-15T14:58:01.839Z,74.43
2022-12-15T15:00:34.822Z,74.97
2022-12-15T15:03:10.317Z,74.97
2022-12-15T15:03:14.309Z,51.64
2022-12-15T15:03:20.106Z,76.66
2022-12-15T15:05:55.152Z,76.84
2022-12-15T15:08:35.852Z,73.99
2022-12-15T15:11:36.260Z,74.39
2022-12-15T15:14:43.479Z,74.38
2022-12-15T15:17:17.234Z,74.02
2022-12-15T15:19:57.691Z,73.07
2022-12-15T15:22:42.134Z,72.02
2022-12-15T15:25:41.717Z,73.02
2022-12-15T15:28:35.838Z,77.05
2022-12-15T15:31:40.399Z,80.54
2022-12-15T15:34:11.699Z,83.95
2022-12-15T15:36:41.202Z,84.61
2022-12-15T15:39:14.294Z,84.26
2022-12-15T15:41:43.183Z,84.18
2022-12-15T15:44:14.882Z,82.96
2022-12-15T15:46:52.327Z,83.87
2022-12-15T15:49:24.646Z,86.14
2022-12-15T15:51:56.256Z,88.65
2022-12-15T15:54:29.449Z,88.14
2022-12-15T15:56:58.032Z,85.60
2022-12-15T15:59:27.226Z,83.81
2022-12-15T16:01:56.287Z,79.29
2022-12-15T16:04:25.519Z,82.65
2022-12-15T16:06:54.411Z,85.08
2022-12-15T16:09:25.117Z,83.55
2022-12-15T16:11:54.033Z,86.30
2022-12-15T16:14:22.615Z,88.98
2022-12-15T16:16:54.169Z,88.81
2022-12-15T16:19:24.185Z,87.44
2022-12-15T16:21:53.483Z,86.66
2022-12-15T16:24:22.068Z,86.50
2022-12-15T16:26:51.373Z,89.27
2022-12-15T16:29:22.085Z,87.03
2022-12-15T16:31:50.598Z,90.06
2022-12-15T16:34:24.928Z,89.96
2022-12-15T16:36:53.376Z,90.69
2022-12-15T16:39:27.491Z,91.14
2022-12-15T16:41:56.902Z,89.08
2022-12-15T16:44:27.220Z,89.77
2022-12-15T16:46:55.945Z,89.73
2022-12-15T16:49:25.511Z,91.69
2022-12-15T16:51:54.612Z,92.39
2022-12-15T16:54:26.468Z,91.25
2022-12-15T16:56:57.681Z,90.66
2022-12-15T16:59:35.663Z,90.79
2022-12-15T17:02:39.635Z,91.65
2022-12-15T17:05:09.643Z,89.50
2022-12-15T17:07:39.451Z,92.30
2022-12-15T17:10:08.451Z,92.24
2022-12-15T17:12:37.545Z,92.51
2022-12-15T17:15:24.148Z,92.00
2022-12-15T17:17:54.861Z,90.44
2022-12-15T17:20:29.406Z,89.93
2022-12-15T17:23:05.090Z,92.45
2022-12-15T17:28:33.569Z,94.28
2022-12-15T17:31:02.481Z,95.80
2022-12-15T17:33:34.065Z,96.78
2022-12-15T17:36:15.891Z,98.56
2022-12-15T17:38:44.580Z,98.63
2022-12-15T17:41:34.979Z,97.89
2022-12-15T17:44:31.777Z,99.28
2022-12-15T17:46:54.736Z,98.66
2022-12-15T17:49:23.353Z,97.39
2022-12-15T17:51:51.833Z,96.52
2022-12-15T17:54:20.630Z,96.65
2022-12-15T17:56:50.231Z,94.37
2022-12-15T17:59:20.755Z,92.71
2022-12-15T18:01:49.421Z,91.85
2022-12-15T18:04:18.052Z,91.85
2022-12-15T18:06:47.016Z,91.45
2022-12-15T18:09:17.751Z,92.25
2022-12-15T18:11:47.152Z,91.46
2022-12-15T18:14:19.731Z,91.39
2022-12-15T18:16:48.656Z,93.41
2022-12-15T18:19:17.306Z,93.43
2022-12-15T18:21:45.890Z,92.16
2022-12-15T18:24:17.595Z,95.49
2022-12-15T18:26:46.127Z,95.68
2022-12-15T18:29:18.333Z,93.92
2022-12-15T18:31:48.614Z,92.04
2022-12-15T18:34:18.329Z,91.72
2022-12-15T18:36:47.422Z,90.81
2022-12-15T18:39:26.069Z,90.95
2022-12-15T18:41:55.133Z,91.03
2022-12-15T18:44:29.245Z,91.38
2022-12-15T18:46:57.794Z,92.52
2022-12-15T18:49:26.516Z,91.13
2022-12-15T18:51:55.099Z,91.87
2022-12-15T18:54:26.550Z,92.36
2022-12-15T18:56:54.983Z,92.44
2022-12-15T18:59:23.614Z,94.63
2022-12-15T19:01:52.466Z,93.84
2022-12-15T19:04:21.292Z,93.12
2022-12-15T19:06:50.490Z,93.29
2022-12-15T19:09:23.476Z,93.05
2022-12-15T19:12:17.937Z,92.25
2022-12-15T19:14:50.258Z,91.06
2022-12-15T19:17:40.327Z,90.88
2022-12-15T19:20:39.317Z,91.50
2022-12-15T19:23:08.106Z,92.45
2022-12-15T19:25:36.901Z,91.24
2022-12-15T19:28:25.954Z,91.43
2022-12-15T19:30:54.541Z,92.56
2022-12-15T19:33:23.224Z,92.82
2022-12-15T19:35:52.324Z,92.89
2022-12-15T19:38:28.175Z,92.77
2022-12-15T19:41:01.171Z,92.41
2022-12-15T19:43:30.010Z,92.11
2022-12-15T19:45:59.081Z,92.90
2022-12-15T19:48:27.932Z,92.71
2022-12-15T19:50:56.726Z,92.53
2022-12-15T19:53:28.701Z,92.59
2022-12-15T19:56:01.725Z,92.17
2022-12-15T19:58:32.176Z,91.27
2022-12-15T20:01:14.868Z,91.18
2022-12-15T20:03:45.732Z,91.05
2022-12-15T20:06:16.174Z,91.66
2022-12-15T20:08:48.137Z,91.16
2022-12-15T20:11:22.460Z,91.90
2022-12-15T20:13:52.060Z,90.96
2022-12-15T20:16:21.773Z,90.45
2022-12-15T20:18:52.832Z,89.91
2022-12-15T20:21:23.082Z,89.57
2022-12-15T20:23:53.559Z,91.69
2022-12-15T20:26:23.065Z,93.10
2022-12-15T20:28:53.295Z,91.69
2022-12-15T20:31:22.725Z,91.10
2022-12-15T20:33:52.093Z,91.71
2022-12-15T20:36:24.814Z,93.23
2022-12-15T20:38:54.486Z,91.95
2022-12-15T20:41:28.020Z,92.39
2022-12-15T20:43:58.131Z,92.29
2022-12-15T20:46:28.589Z,93.28
2022-12-15T20:48:57.220Z,93.19
2022-12-15T20:51:31.639Z,93.16
2022-12-15T20:54:03.129Z,93.34
2022-12-15T20:56:31.977Z,92.90
2022-12-15T20:59:00.458Z,93.72
2022-12-15T21:01:33.652Z,94.74
2022-12-15T21:04:18.510Z,93.02
2022-12-15T21:06:52.820Z,92.86
2022-12-15T21:09:23.967Z,92.81
2022-12-15T21:11:54.667Z,93.37
2022-12-15T21:14:24.740Z,93.95
2022-12-15T21:16:53.500Z,93.31
2022-12-15T21:19:22.985Z,93.18
2022-12-15T21:21:55.115Z,93.64
2022-12-15T21:24:27.413Z,93.89
2022-12-15T21:26:56.554Z,94.30
2022-12-15T21:29:28.127Z,94.45
2022-12-15T21:31:56.577Z,95.26
2022-12-15T21:34:25.263Z,96.17
2022-12-15T21:36:55.229Z,96.83
2022-12-15T21:39:32.875Z,96.41
2022-12-15T21:42:08.726Z,95.50
2022-12-15T21:44:37.415Z,94.97
2022-12-15T21:47:25.951Z,95.12
2022-12-15T21:49:55.111Z,95.49
2022-12-15T21:52:27.548Z,94.80
2022-12-15T21:54:56.329Z,94.62
2022-12-15T21:57:25.019Z,95.89
2022-12-15T21:59:55.396Z,95.17
2022-12-15T22:02:27.527Z,95.23
2022-12-15T22:04:56.392Z,95.15
2022-12-15T22:07:25.280Z,95.23
2022-12-15T22:09:54.170Z,95.70
2022-12-15T22:12:24.907Z,95.98
2022-12-15T22:14:53.598Z,96.35
2022-12-15T22:17:22.893Z,95.60
2022-12-15T22:19:51.580Z,96.44
2022-12-15T22:22:21.406Z,96.59
2022-12-15T22:24:50.175Z,96.49
2022-12-15T22:27:21.802Z,96.07
2022-12-15T22:29:50.943Z,95.32
2022-12-15T22:32:20.129Z,94.91
2022-12-15T22:34:49.031Z,95.08
2022-12-15T22:37:18.004Z,94.89
2022-12-15T22:39:46.907Z,95.50
2022-12-15T22:42:18.151Z,97.19
2022-12-15T22:44:47.222Z,97.55
2022-12-15T22:47:16.035Z,97.55
2022-12-15T22:49:45.434Z,96.78
2022-12-15T22:52:19.618Z,96.75
2022-12-15T22:54:49.046Z,96.41
2022-12-15T22:57:24.296Z,97.01
2022-12-15T23:00:09.327Z,97.15
2022-12-15T23:02:42.628Z,98.01
2022-12-15T23:05:15.379Z,97.71
2022-12-15T23:07:45.330Z,97.53
2022-12-15T23:10:35.737Z,97.79
2022-12-15T23:13:05.969Z,97.80
2022-12-15T23:15:54.627Z,99.05
2022-12-15T23:18:24.540Z,100.00
2022-12-15T23:20:54.722Z,100.00
2022-12-15T23:23:24.501Z,100.00
2022-12-15T23:25:53.780Z,100.00
2022-12-15T23:28:23.371Z,100.00
2022-12-15T23:30:54.725Z,100.00
2022-12-15T23:33:25.607Z,100.00
2022-12-15T23:35:56.854Z,100.00
2022-12-15T23:38:27.071Z,100.00
2022-12-15T23:40:57.771Z,100.00
2022-12-15T23:43:28.256Z,100.00
2022-12-15T23:46:06.003Z,100.00
2022-12-15T23:48:37.513Z,99.73
2022-12-15T23:51:11.528Z,99.24
2022-12-15T23:53:41.456Z,100.00
2022-12-15T23:56:11.776Z,100.00
2022-12-15T23:58:41.151Z,100.00
